createdAt,value
2023-07-07T00:00:43.078Z,0.00
2023-07-07T00:01:43.782Z,0.00
2023-07-07T00:02:43.809Z,0.00
2023-07-07T00:03:43.759Z,0.00
2023-07-07T00:04:43.717Z,0.00
2023-07-07T00:05:43.025Z,0.00
2023-07-07T00:06:43.044Z,0.00
2023-07-07T00:07:43.035Z,0.00
2023-07-07T00:08:42.992Z,0.00
2023-07-07T00:09:42.977Z,0.00
2023-07-07T00:10:42.969Z,0.00
2023-07-07T00:11:43.622Z,0.00
2023-07-07T00:12:43.640Z,0.00
2023-07-07T00:13:43.653Z,0.00
2023-07-07T00:14:43.619Z,0.00
2023-07-07T00:15:43.599Z,0.00
2023-07-07T00:16:43.667Z,0.00
2023-07-07T00:17:43.218Z,0.00
2023-07-07T00:18:43.565Z,0.00
2023-07-07T00:19:42.868Z,0.00
2023-07-07T00:20:43.547Z,0.00
2023-07-07T00:21:42.868Z,0.00
2023-07-07T00:22:42.847Z,0.00
2023-07-07T00:23:42.823Z,0.00
2023-07-07T00:24:43.503Z,0.00
2023-07-07T00:25:42.838Z,0.00
2023-07-07T00:26:42.802Z,0.00
2023-07-07T00:27:43.467Z,0.00
2023-07-07T00:28:42.782Z,0.00
2023-07-07T00:29:43.456Z,0.00
2023-07-07T00:30:43.484Z,0.00
2023-07-07T00:31:42.743Z,0.00
2023-07-07T00:32:43.451Z,0.00
2023-07-07T00:33:43.412Z,0.00
2023-07-07T00:34:43.380Z,0.00
2023-07-07T00:35:42.722Z,0.00
2023-07-07T00:36:43.376Z,0.00
2023-07-07T00:37:43.365Z,0.00
2023-07-07T00:38:43.354Z,0.00
2023-07-07T00:39:43.324Z,0.00
2023-07-07T00:40:43.364Z,0.00
2023-07-07T00:41:43.319Z,0.00
2023-07-07T00:42:43.316Z,0.00
2023-07-07T00:43:43.300Z,0.00
2023-07-07T00:44:42.617Z,0.00
2023-07-07T00:45:43.280Z,0.00
2023-07-07T00:46:42.671Z,0.00
2023-07-07T00:47:45.092Z,0.00
2023-07-07T00:48:42.583Z,0.00
2023-07-07T00:49:45.002Z,0.00
2023-07-07T00:50:43.226Z,0.00
2023-07-07T00:51:42.545Z,0.00
2023-07-07T00:52:43.205Z,0.00
2023-07-07T00:53:42.524Z,0.00
2023-07-07T00:54:43.180Z,0.00
2023-07-07T00:55:43.163Z,0.00
2023-07-07T00:56:43.150Z,0.00
2023-07-07T00:57:42.486Z,0.00
2023-07-07T00:58:42.483Z,0.00
2023-07-07T00:59:42.441Z,0.00
2023-07-07T01:00:43.183Z,0.00
2023-07-07T01:01:43.202Z,0.00
2023-07-07T01:02:43.169Z,0.00
2023-07-07T01:03:43.068Z,0.00
2023-07-07T01:04:42.430Z,0.00
2023-07-07T01:05:43.069Z,0.00
2023-07-07T01:06:43.050Z,0.00
2023-07-07T01:07:43.027Z,0.00
2023-07-07T01:08:42.337Z,0.00
2023-07-07T01:09:42.338Z,0.00
2023-07-07T01:10:43.001Z,0.00
2023-07-07T01:11:42.294Z,0.00
2023-07-07T01:12:42.962Z,0.00
2023-07-07T01:13:43.037Z,0.00
2023-07-07T01:14:42.964Z,0.00
2023-07-07T01:15:42.970Z,0.00
2023-07-07T01:16:42.282Z,0.00
2023-07-07T01:17:42.980Z,0.00
2023-07-07T01:18:43.177Z,0.00
2023-07-07T01:19:42.211Z,0.00
2023-07-07T01:20:42.214Z,0.00
2023-07-07T01:21:42.229Z,0.00
2023-07-07T01:22:42.890Z,0.00
2023-07-07T01:23:42.858Z,0.00
2023-07-07T01:24:42.845Z,0.00
2023-07-07T01:25:42.148Z,0.00
2023-07-07T01:26:42.213Z,0.00
2023-07-07T01:27:42.819Z,0.00
2023-07-07T01:28:42.807Z,0.00
2023-07-07T01:29:42.120Z,0.00
2023-07-07T01:30:42.767Z,0.00
2023-07-07T01:31:42.804Z,0.00
2023-07-07T01:32:42.115Z,0.00
2023-07-07T01:33:42.075Z,0.00
2023-07-07T01:34:42.053Z,0.00
2023-07-07T01:35:42.058Z,0.00
2023-07-07T01:36:42.036Z,0.00
2023-07-07T01:37:42.042Z,0.00
2023-07-07T01:38:42.012Z,0.00
2023-07-07T01:39:42.690Z,0.00
2023-07-07T01:40:41.999Z,0.00
2023-07-07T01:41:42.663Z,0.00
2023-07-07T01:42:42.649Z,0.00
2023-07-07T01:43:42.641Z,0.00
2023-07-07T01:44:41.975Z,0.00
2023-07-07T01:45:42.610Z,0.00
2023-07-07T01:46:42.797Z,0.00
2023-07-07T01:47:42.667Z,0.00
2023-07-07T01:48:42.590Z,0.00
2023-07-07T01:49:42.564Z,0.00
2023-07-07T01:50:41.902Z,0.00
2023-07-07T01:51:41.898Z,0.00
2023-07-07T01:52:41.866Z,0.00
2023-07-07T01:53:42.540Z,0.00
2023-07-07T01:54:41.858Z,0.00
2023-07-07T01:55:41.841Z,0.00
2023-07-07T01:56:42.506Z,0.00
2023-07-07T01:57:42.543Z,0.00
2023-07-07T01:58:41.811Z,0.00
2023-07-07T01:59:42.454Z,0.00
2023-07-07T02:00:42.476Z,0.00
2023-07-07T02:01:41.803Z,0.00
2023-07-07T02:02:41.786Z,0.00
2023-07-07T02:03:41.792Z,0.00
2023-07-07T02:04:42.537Z,0.00
2023-07-07T02:05:42.410Z,0.00
2023-07-07T02:06:42.411Z,0.00
2023-07-07T02:07:41.701Z,0.00
2023-07-07T02:08:41.713Z,0.00
2023-07-07T02:09:42.368Z,0.00
2023-07-07T02:10:42.384Z,0.00
2023-07-07T02:11:42.346Z,0.00
2023-07-07T02:12:42.322Z,0.00
2023-07-07T02:13:41.704Z,0.00
2023-07-07T02:14:42.315Z,0.00
2023-07-07T02:15:42.301Z,0.00
2023-07-07T02:16:42.288Z,0.00
2023-07-07T02:17:42.313Z,0.00
2023-07-07T02:18:42.285Z,0.00
2023-07-07T02:19:42.258Z,0.00
2023-07-07T02:20:42.266Z,0.00
2023-07-07T02:21:41.550Z,0.00
2023-07-07T02:22:42.221Z,0.00
2023-07-07T02:23:42.469Z,0.00
2023-07-07T02:24:42.208Z,0.00
2023-07-07T02:25:41.536Z,0.00
2023-07-07T02:26:42.178Z,0.00
2023-07-07T02:27:42.173Z,0.00
2023-07-07T02:28:42.163Z,0.00
2023-07-07T02:29:41.469Z,0.00
2023-07-07T02:30:41.455Z,0.00
2023-07-07T02:31:41.530Z,0.00
2023-07-07T02:32:41.462Z,0.00
2023-07-07T02:33:41.441Z,0.00
2023-07-07T02:34:42.098Z,0.00
2023-07-07T02:35:42.078Z,0.00
2023-07-07T02:36:41.409Z,0.00
2023-07-07T02:37:42.136Z,0.00
2023-07-07T02:38:41.375Z,0.00
2023-07-07T02:39:42.093Z,0.00
2023-07-07T02:40:42.023Z,0.00
2023-07-07T02:41:41.360Z,0.00
2023-07-07T02:42:41.337Z,0.00
2023-07-07T02:43:42.004Z,0.00
2023-07-07T02:44:41.300Z,0.00
2023-07-07T02:45:41.963Z,0.00
2023-07-07T02:46:41.314Z,0.00
2023-07-07T02:47:41.986Z,0.00
2023-07-07T02:48:41.955Z,0.00
2023-07-07T02:49:41.947Z,0.00
2023-07-07T02:50:41.909Z,0.00
2023-07-07T02:51:43.682Z,0.00
2023-07-07T02:52:41.226Z,0.00
2023-07-07T02:53:41.245Z,0.00
2023-07-07T02:54:41.221Z,0.00
2023-07-07T02:55:41.865Z,0.00
2023-07-07T02:56:41.865Z,0.00
2023-07-07T02:57:41.166Z,0.00
2023-07-07T02:58:41.169Z,0.00
2023-07-07T02:59:41.821Z,0.00
2023-07-07T03:00:41.199Z,0.00
2023-07-07T03:01:41.873Z,0.00
2023-07-07T03:02:41.825Z,0.00
2023-07-07T03:03:41.868Z,5.62
2023-07-07T03:04:41.768Z,5.62
2023-07-07T03:05:41.079Z,5.62
2023-07-07T03:06:41.754Z,5.62
2023-07-07T03:07:41.744Z,5.62
2023-07-07T03:08:41.732Z,5.62
2023-07-07T03:09:41.704Z,5.62
2023-07-07T03:10:41.040Z,5.62
2023-07-07T03:11:41.014Z,5.62
2023-07-07T03:12:41.012Z,11.25
2023-07-07T03:13:41.023Z,11.25
2023-07-07T03:14:41.669Z,11.25
2023-07-07T03:15:41.923Z,11.25
2023-07-07T03:16:41.715Z,11.25
2023-07-07T03:17:41.748Z,11.25
2023-07-07T03:18:41.679Z,11.25
2023-07-07T03:19:41.619Z,16.88
2023-07-07T03:20:41.666Z,16.88
2023-07-07T03:21:41.600Z,16.88
2023-07-07T03:22:40.913Z,16.88
2023-07-07T03:23:41.563Z,22.50
2023-07-07T03:24:40.884Z,22.50
2023-07-07T03:25:41.554Z,22.50
2023-07-07T03:26:40.860Z,22.50
2023-07-07T03:27:41.513Z,28.12
2023-07-07T03:28:41.796Z,28.12
2023-07-07T03:29:41.531Z,28.12
2023-07-07T03:30:41.518Z,28.12
2023-07-07T03:31:41.507Z,33.75
2023-07-07T03:32:41.524Z,33.75
2023-07-07T03:33:41.464Z,33.75
2023-07-07T03:34:41.454Z,39.38
2023-07-07T03:35:41.453Z,39.38
2023-07-07T03:36:41.417Z,39.38
2023-07-07T03:37:41.421Z,45.00
2023-07-07T03:38:41.411Z,45.00
2023-07-07T03:39:41.401Z,50.62
2023-07-07T03:40:41.393Z,56.25
2023-07-07T03:41:41.359Z,56.25
2023-07-07T03:42:41.365Z,61.88
2023-07-07T03:43:41.359Z,61.88
2023-07-07T03:44:41.350Z,67.50
2023-07-07T03:45:41.321Z,67.50
2023-07-07T03:46:41.402Z,67.50
2023-07-07T03:47:41.356Z,73.12
2023-07-07T03:48:41.333Z,73.12
2023-07-07T03:49:41.302Z,73.12
2023-07-07T03:50:41.263Z,73.12
2023-07-07T03:51:41.268Z,78.75
2023-07-07T03:52:41.257Z,78.75
2023-07-07T03:53:41.246Z,78.75
2023-07-07T03:54:41.244Z,78.75
2023-07-07T03:55:41.205Z,84.38
2023-07-07T03:56:41.214Z,84.38
2023-07-07T03:57:41.208Z,84.38
2023-07-07T03:58:41.194Z,84.38
2023-07-07T03:59:41.181Z,90.00
2023-07-07T04:00:41.158Z,90.00
2023-07-07T04:01:41.161Z,95.62
2023-07-07T04:02:41.217Z,101.25
2023-07-07T04:03:42.338Z,106.88
2023-07-07T04:04:41.256Z,106.88
2023-07-07T04:05:42.877Z,112.50
2023-07-07T04:06:41.112Z,118.12
2023-07-07T04:07:41.096Z,123.75
2023-07-07T04:08:41.091Z,123.75
2023-07-07T04:09:41.370Z,129.38
2023-07-07T04:10:41.066Z,135.00
2023-07-07T04:11:41.056Z,135.00
2023-07-07T04:12:41.049Z,146.25
2023-07-07T04:13:41.061Z,151.88
2023-07-07T04:14:41.000Z,157.50
2023-07-07T04:15:41.021Z,168.75
2023-07-07T04:16:41.036Z,180.00
2023-07-07T04:17:41.028Z,202.50
2023-07-07T04:18:40.968Z,219.38
2023-07-07T04:19:40.992Z,247.50
2023-07-07T04:20:40.963Z,281.25
2023-07-07T04:21:40.950Z,292.50
2023-07-07T04:22:40.937Z,298.12
2023-07-07T04:23:40.267Z,303.75
2023-07-07T04:24:40.917Z,309.38
2023-07-07T04:25:40.920Z,320.62
2023-07-07T04:26:40.244Z,326.25
2023-07-07T04:27:40.866Z,331.88
2023-07-07T04:28:40.208Z,343.12
2023-07-07T04:29:40.860Z,343.12
2023-07-07T04:30:40.860Z,343.12
2023-07-07T04:31:40.854Z,354.38
2023-07-07T04:32:40.263Z,360.00
2023-07-07T04:33:41.076Z,371.25
2023-07-07T04:34:40.806Z,388.12
2023-07-07T04:35:40.793Z,405.00
2023-07-07T04:36:42.396Z,421.88
2023-07-07T04:37:40.767Z,455.62
2023-07-07T04:38:40.762Z,511.88
2023-07-07T04:39:40.071Z,624.38
2023-07-07T04:40:40.738Z,815.62
2023-07-07T04:41:40.080Z,1012.50
2023-07-07T04:42:40.702Z,1164.38
2023-07-07T04:43:40.096Z,1220.62
2023-07-07T04:44:40.696Z,1220.62
2023-07-07T04:45:40.683Z,1215.00
2023-07-07T04:46:40.747Z,1170.00
2023-07-07T04:47:40.002Z,1125.00
2023-07-07T04:48:39.966Z,1136.25
2023-07-07T04:49:39.958Z,1141.88
2023-07-07T04:50:40.628Z,1147.50
2023-07-07T04:51:40.600Z,1158.75
2023-07-07T04:52:40.628Z,1147.50
2023-07-07T04:53:40.682Z,1096.88
2023-07-07T04:54:39.917Z,1080.00
2023-07-07T04:55:39.907Z,1085.62
2023-07-07T04:56:40.551Z,1102.50
2023-07-07T04:57:40.649Z,1108.12
2023-07-07T04:58:40.575Z,1080.00
2023-07-07T04:59:40.569Z,1068.75
2023-07-07T05:00:40.540Z,1051.88
2023-07-07T05:01:39.899Z,1012.50
2023-07-07T05:02:40.635Z,1012.50
2023-07-07T05:03:39.881Z,1023.75
2023-07-07T05:04:39.832Z,1029.38
2023-07-07T05:05:40.472Z,1006.88
2023-07-07T05:06:40.477Z,984.38
2023-07-07T05:07:39.771Z,984.38
2023-07-07T05:08:40.444Z,1006.88
2023-07-07T05:09:40.415Z,1012.50
2023-07-07T05:10:40.404Z,1001.25
2023-07-07T05:11:39.730Z,967.50
2023-07-07T05:12:39.729Z,956.25
2023-07-07T05:13:39.840Z,995.62
2023-07-07T05:14:39.744Z,1001.25
2023-07-07T05:15:40.363Z,984.38
2023-07-07T05:16:40.417Z,984.38
2023-07-07T05:17:39.711Z,978.75
2023-07-07T05:18:40.345Z,973.12
2023-07-07T05:19:39.651Z,945.00
2023-07-07T05:20:39.619Z,933.75
2023-07-07T05:21:40.319Z,956.25
2023-07-07T05:22:40.289Z,973.12
2023-07-07T05:23:40.265Z,978.75
2023-07-07T05:24:39.611Z,973.12
2023-07-07T05:25:39.569Z,1001.25
2023-07-07T05:26:40.244Z,1029.38
2023-07-07T05:27:39.551Z,1029.38
2023-07-07T05:28:39.571Z,1029.38
2023-07-07T05:29:39.541Z,1046.25
2023-07-07T05:30:40.201Z,990.00
2023-07-07T05:31:39.546Z,950.62
2023-07-07T05:32:40.235Z,967.50
2023-07-07T05:33:40.160Z,995.62
2023-07-07T05:34:40.160Z,1001.25
2023-07-07T05:35:40.156Z,1023.75
2023-07-07T05:36:40.146Z,1057.50
2023-07-07T05:37:40.111Z,1040.62
2023-07-07T05:38:40.113Z,1102.50
2023-07-07T05:39:39.433Z,1175.62
2023-07-07T05:40:39.415Z,1198.12
2023-07-07T05:41:39.414Z,1147.50
2023-07-07T05:42:40.073Z,1141.88
2023-07-07T05:43:39.394Z,1136.25
2023-07-07T05:44:39.367Z,1096.88
2023-07-07T05:45:39.448Z,1063.12
2023-07-07T05:46:39.532Z,1113.75
2023-07-07T05:47:39.390Z,1203.75
2023-07-07T05:48:39.322Z,1215.00
2023-07-07T05:49:40.040Z,1226.25
2023-07-07T05:50:39.304Z,1282.50
2023-07-07T05:51:39.352Z,1321.88
2023-07-07T05:52:39.320Z,1293.75
2023-07-07T05:53:39.269Z,1282.50
2023-07-07T05:54:39.274Z,1276.88
2023-07-07T05:55:39.953Z,1310.62
2023-07-07T05:56:39.267Z,1350.00
2023-07-07T05:57:39.917Z,1440.00
2023-07-07T05:58:41.656Z,1608.75
2023-07-07T05:59:39.239Z,1614.38
2023-07-07T06:00:39.207Z,1614.38
2023-07-07T06:01:40.010Z,1698.75
2023-07-07T06:02:39.873Z,1738.12
2023-07-07T06:03:39.878Z,1670.62
2023-07-07T06:04:39.841Z,1665.00
2023-07-07T06:05:39.148Z,1957.50
2023-07-07T06:06:39.813Z,2210.62
2023-07-07T06:07:39.808Z,2278.12
2023-07-07T06:08:41.588Z,2216.25
2023-07-07T06:09:39.791Z,1957.50
2023-07-07T06:10:39.158Z,1597.50
2023-07-07T06:11:39.776Z,1395.00
2023-07-07T06:12:39.761Z,1316.25
2023-07-07T06:13:39.798Z,1243.12
2023-07-07T06:14:39.752Z,1170.00
2023-07-07T06:15:39.719Z,1102.50
2023-07-07T06:16:39.828Z,1057.50
2023-07-07T06:17:39.756Z,1023.75
2023-07-07T06:18:38.991Z,1006.88
2023-07-07T06:19:39.669Z,1001.25
2023-07-07T06:20:39.682Z,1001.25
2023-07-07T06:21:38.963Z,995.62
2023-07-07T06:22:38.971Z,995.62
2023-07-07T06:23:39.663Z,995.62
2023-07-07T06:24:39.617Z,1001.25
2023-07-07T06:25:38.933Z,1012.50
2023-07-07T06:26:39.619Z,1018.12
2023-07-07T06:27:39.594Z,1029.38
2023-07-07T06:28:38.897Z,1046.25
2023-07-07T06:29:38.907Z,1096.88
2023-07-07T06:30:38.879Z,1288.12
2023-07-07T06:31:38.940Z,1552.50
2023-07-07T06:32:39.560Z,1732.50
2023-07-07T06:33:39.514Z,1833.75
2023-07-07T06:34:38.868Z,1805.62
2023-07-07T06:35:38.837Z,1839.38
2023-07-07T06:36:38.824Z,1861.88
2023-07-07T06:37:38.815Z,1856.25
2023-07-07T06:38:39.472Z,1828.12
2023-07-07T06:39:38.822Z,1777.50
2023-07-07T06:40:39.462Z,1935.00
2023-07-07T06:41:39.449Z,2053.12
2023-07-07T06:42:39.438Z,2109.38
2023-07-07T06:43:39.432Z,2244.38
2023-07-07T06:44:38.720Z,2221.88
2023-07-07T06:45:39.418Z,2233.12
2023-07-07T06:46:39.435Z,2334.38
2023-07-07T06:47:39.443Z,2317.50
2023-07-07T06:48:39.360Z,2306.25
2023-07-07T06:49:39.368Z,2345.62
2023-07-07T06:50:39.372Z,2328.75
2023-07-07T06:51:38.683Z,2452.50
2023-07-07T06:52:38.667Z,2514.38
2023-07-07T06:53:39.325Z,2525.62
2023-07-07T06:54:38.664Z,2424.38
2023-07-07T06:55:39.335Z,2373.75
2023-07-07T06:56:39.296Z,2480.62
2023-07-07T06:57:39.279Z,2655.00
2023-07-07T06:58:38.620Z,2581.88
2023-07-07T06:59:39.272Z,2671.88
2023-07-07T07:00:39.275Z,2733.75
2023-07-07T07:01:39.273Z,2553.75
2023-07-07T07:02:38.585Z,2587.50
2023-07-07T07:03:38.577Z,2677.50
2023-07-07T07:04:39.214Z,2801.25
2023-07-07T07:05:39.200Z,2767.50
2023-07-07T07:06:39.170Z,2801.25
2023-07-07T07:07:38.559Z,2880.00
2023-07-07T07:08:39.182Z,2851.88
2023-07-07T07:09:39.161Z,2823.75
2023-07-07T07:10:39.159Z,2756.25
2023-07-07T07:11:39.123Z,2688.75
2023-07-07T07:12:39.128Z,2745.00
2023-07-07T07:13:39.143Z,2716.88
2023-07-07T07:14:39.136Z,2801.25
2023-07-07T07:15:39.102Z,2975.62
2023-07-07T07:16:39.106Z,3003.75
2023-07-07T07:17:39.147Z,2812.50
2023-07-07T07:18:39.065Z,2626.88
2023-07-07T07:19:39.057Z,2790.00
2023-07-07T07:20:38.397Z,3099.38
2023-07-07T07:21:39.035Z,3076.88
2023-07-07T07:22:38.340Z,2970.00
2023-07-07T07:23:39.024Z,2863.12
2023-07-07T07:24:38.323Z,2908.12
2023-07-07T07:25:38.976Z,3043.12
2023-07-07T07:26:38.314Z,3082.50
2023-07-07T07:27:38.974Z,3206.25
2023-07-07T07:28:38.965Z,3256.88
2023-07-07T07:29:38.957Z,3195.00
2023-07-07T07:30:39.002Z,3178.12
2023-07-07T07:31:39.021Z,3172.50
2023-07-07T07:32:38.259Z,3144.38
2023-07-07T07:33:38.259Z,3043.12
2023-07-07T07:34:39.145Z,3031.88
2023-07-07T07:35:38.873Z,3110.62
2023-07-07T07:36:38.894Z,3144.38
2023-07-07T07:37:39.096Z,3346.88
2023-07-07T07:38:38.871Z,3420.00
2023-07-07T07:39:38.204Z,3358.12
2023-07-07T07:40:38.167Z,3538.12
2023-07-07T07:41:38.833Z,3605.62
2023-07-07T07:42:38.820Z,3487.50
2023-07-07T07:43:39.039Z,3363.75
2023-07-07T07:44:38.785Z,3341.25
2023-07-07T07:45:38.796Z,3515.62
2023-07-07T07:46:38.132Z,3403.12
2023-07-07T07:47:38.892Z,3571.88
2023-07-07T07:48:38.748Z,3785.62
2023-07-07T07:49:38.091Z,3819.38
2023-07-07T07:50:38.741Z,3830.62
2023-07-07T07:51:41.065Z,3796.88
2023-07-07T07:52:38.724Z,3706.88
2023-07-07T07:53:38.693Z,3735.00
2023-07-07T07:54:38.042Z,3650.62
2023-07-07T07:55:38.007Z,3796.88
2023-07-07T07:56:37.997Z,3763.12
2023-07-07T07:57:38.677Z,3594.38
2023-07-07T07:58:38.655Z,3645.00
2023-07-07T07:59:37.966Z,3420.00
2023-07-07T08:00:38.639Z,3560.62
2023-07-07T08:01:37.999Z,3825.00
2023-07-07T08:02:38.612Z,3774.38
2023-07-07T08:03:38.058Z,3774.38
2023-07-07T08:04:38.597Z,3628.12
2023-07-07T08:05:38.590Z,3735.00
2023-07-07T08:06:38.612Z,3819.38
2023-07-07T08:07:38.555Z,3526.88
2023-07-07T08:08:37.895Z,3521.25
2023-07-07T08:09:37.900Z,3543.75
2023-07-07T08:10:38.546Z,3740.62
2023-07-07T08:11:37.860Z,3858.75
2023-07-07T08:12:38.525Z,3808.12
2023-07-07T08:13:40.818Z,3847.50
2023-07-07T08:14:37.800Z,3774.38
2023-07-07T08:15:38.488Z,3718.12
2023-07-07T08:16:38.492Z,3712.50
2023-07-07T08:17:38.487Z,3481.88
2023-07-07T08:18:38.494Z,3330.00
2023-07-07T08:19:38.460Z,3504.38
2023-07-07T08:20:37.758Z,3690.00
2023-07-07T08:21:37.765Z,3712.50
2023-07-07T08:22:38.418Z,3380.62
2023-07-07T08:23:37.712Z,2750.62
2023-07-07T08:24:38.431Z,1985.62
2023-07-07T08:25:37.723Z,1305.00
2023-07-07T08:26:40.194Z,1057.50
2023-07-07T08:27:39.514Z,961.88
2023-07-07T08:28:48.851Z,883.12
2023-07-07T08:29:38.647Z,821.25
2023-07-07T08:30:38.354Z,776.25
2023-07-07T08:31:37.628Z,725.62
2023-07-07T08:32:38.330Z,680.62
2023-07-07T08:33:41.079Z,652.50
2023-07-07T08:34:53.816Z,624.38
2023-07-07T08:35:38.606Z,601.88
2023-07-07T08:36:38.277Z,590.62
2023-07-07T08:37:37.575Z,573.75
2023-07-07T08:38:37.567Z,562.50
2023-07-07T08:39:38.223Z,545.62
2023-07-07T08:40:38.212Z,540.00
2023-07-07T08:41:38.215Z,534.38
2023-07-07T08:42:38.202Z,528.75
2023-07-07T08:43:37.523Z,517.50
2023-07-07T08:44:37.519Z,511.88
2023-07-07T08:45:38.173Z,506.25
2023-07-07T08:46:38.215Z,495.00
2023-07-07T08:47:38.177Z,489.38
2023-07-07T08:48:38.122Z,483.75
2023-07-07T08:49:37.460Z,472.50
2023-07-07T08:50:38.129Z,461.25
2023-07-07T08:51:37.444Z,455.62
2023-07-07T08:52:38.099Z,455.62
2023-07-07T08:53:38.072Z,444.38
2023-07-07T08:54:40.224Z,438.75
2023-07-07T08:55:37.403Z,438.75
2023-07-07T08:56:37.382Z,433.12
2023-07-07T08:57:38.051Z,433.12
2023-07-07T08:58:38.263Z,427.50
2023-07-07T08:59:38.059Z,421.88
2023-07-07T09:00:38.020Z,421.88
2023-07-07T09:01:38.316Z,416.25
2023-07-07T09:02:38.001Z,410.62
2023-07-07T09:03:37.353Z,410.62
2023-07-07T09:04:37.393Z,405.00
2023-07-07T09:05:37.976Z,405.00
2023-07-07T09:06:37.953Z,399.38
2023-07-07T09:07:37.927Z,399.38
2023-07-07T09:08:49.469Z,393.75
2023-07-07T09:09:38.926Z,393.75
2023-07-07T09:10:37.921Z,393.75
2023-07-07T09:11:37.916Z,393.75
2023-07-07T09:12:37.878Z,388.12
2023-07-07T09:13:37.310Z,388.12
2023-07-07T09:14:37.184Z,388.12
2023-07-07T09:15:37.192Z,388.12
2023-07-07T09:16:37.864Z,388.12
2023-07-07T09:17:38.168Z,382.50
2023-07-07T09:18:37.149Z,388.12
2023-07-07T09:19:37.129Z,382.50
2023-07-07T09:20:37.149Z,382.50
2023-07-07T09:21:37.127Z,376.88
2023-07-07T09:22:37.101Z,376.88
2023-07-07T09:23:37.780Z,376.88
2023-07-07T09:24:37.774Z,376.88
2023-07-07T09:25:49.799Z,376.88
2023-07-07T09:26:38.742Z,376.88
2023-07-07T09:27:37.067Z,376.88
2023-07-07T09:28:37.735Z,371.25
2023-07-07T09:29:37.723Z,371.25
2023-07-07T09:30:37.694Z,371.25
2023-07-07T09:31:37.032Z,371.25
2023-07-07T09:32:37.720Z,371.25
2023-07-07T09:33:39.436Z,371.25
2023-07-07T09:34:37.670Z,371.25
2023-07-07T09:35:37.645Z,371.25
2023-07-07T09:36:37.653Z,371.25
2023-07-07T09:37:36.960Z,371.25
2023-07-07T09:38:37.636Z,371.25
2023-07-07T09:39:37.601Z,371.25
2023-07-07T09:40:37.598Z,365.62
2023-07-07T09:41:37.604Z,365.62
2023-07-07T09:42:37.603Z,365.62
2023-07-07T09:43:45.605Z,360.00
2023-07-07T09:44:38.579Z,360.00
2023-07-07T09:45:36.886Z,354.38
2023-07-07T09:46:37.611Z,354.38
2023-07-07T09:47:39.341Z,354.38
2023-07-07T09:48:36.841Z,354.38
2023-07-07T09:49:36.852Z,348.75
2023-07-07T09:50:37.513Z,348.75
2023-07-07T09:51:36.815Z,348.75
2023-07-07T09:52:36.803Z,348.75
2023-07-07T09:53:46.794Z,348.75
2023-07-07T09:54:38.458Z,348.75
2023-07-07T09:55:38.714Z,348.75
2023-07-07T09:56:36.756Z,348.75
2023-07-07T09:57:36.749Z,348.75
2023-07-07T09:58:36.806Z,348.75
2023-07-07T09:59:37.416Z,348.75
2023-07-07T10:00:45.474Z,348.75
2023-07-07T10:01:37.772Z,348.75
2023-07-07T10:02:37.418Z,348.75
2023-07-07T10:03:36.721Z,348.75
2023-07-07T10:04:37.433Z,348.75
2023-07-07T10:05:37.372Z,354.38
2023-07-07T10:06:36.669Z,360.00
2023-07-07T10:07:36.693Z,354.38
2023-07-07T10:08:36.665Z,354.38
2023-07-07T10:09:36.659Z,354.38
2023-07-07T10:10:36.619Z,360.00
2023-07-07T10:12:38.044Z,365.62
2023-07-07T10:13:36.633Z,365.62
2023-07-07T10:14:37.275Z,371.25
2023-07-07T10:15:37.262Z,376.88
2023-07-07T10:16:37.303Z,376.88
2023-07-07T10:17:36.636Z,382.50
2023-07-07T10:18:45.363Z,388.12
2023-07-07T10:19:38.223Z,388.12
2023-07-07T10:20:36.537Z,393.75
2023-07-07T10:21:37.197Z,399.38
2023-07-07T10:22:36.537Z,405.00
2023-07-07T10:23:36.510Z,410.62
2023-07-07T10:24:36.486Z,416.25
2023-07-07T10:25:37.158Z,427.50
2023-07-07T10:26:36.490Z,433.12
2023-07-07T10:27:36.496Z,444.38
2023-07-07T10:28:37.698Z,461.25
2023-07-07T10:29:37.125Z,483.75
2023-07-07T10:30:37.132Z,500.62
2023-07-07T10:31:37.163Z,534.38
2023-07-07T10:32:37.144Z,573.75
2023-07-07T10:33:37.080Z,646.88
2023-07-07T10:34:37.067Z,753.75
2023-07-07T10:35:36.366Z,1468.12
2023-07-07T10:36:37.029Z,3960.00
2023-07-07T10:37:37.039Z,5304.38
2023-07-07T10:38:41.979Z,5540.62
2023-07-07T10:39:37.373Z,5585.62
2023-07-07T10:40:37.001Z,5709.38
2023-07-07T10:41:36.340Z,5703.75
2023-07-07T10:42:36.983Z,5535.00
2023-07-07T10:43:36.307Z,5360.62
2023-07-07T10:44:36.299Z,5028.75
2023-07-07T10:45:36.973Z,4882.50
2023-07-07T10:46:36.293Z,5118.75
2023-07-07T10:47:37.036Z,5208.75
2023-07-07T10:48:36.930Z,5276.25
2023-07-07T10:49:36.308Z,5456.25
2023-07-07T10:50:36.268Z,5231.25
2023-07-07T10:51:36.241Z,4848.75
2023-07-07T10:53:36.171Z,2981.25
2023-07-07T10:54:36.750Z,708.75
2023-07-07T10:55:36.844Z,275.62
2023-07-07T10:56:36.845Z,247.50
2023-07-07T10:57:36.835Z,241.88
2023-07-07T10:58:36.825Z,241.88
2023-07-07T11:00:38.831Z,236.25
2023-07-07T11:01:36.795Z,236.25
2023-07-07T11:02:36.789Z,236.25
2023-07-07T11:03:36.825Z,236.25
2023-07-07T11:04:36.793Z,230.62
2023-07-07T11:05:37.856Z,225.00
2023-07-07T11:06:36.083Z,219.38
2023-07-07T11:07:36.061Z,219.38
2023-07-07T11:08:36.050Z,213.75
2023-07-07T11:09:36.066Z,213.75
2023-07-07T11:10:36.167Z,213.75
2023-07-07T11:11:36.004Z,213.75
2023-07-07T11:12:36.020Z,213.75
2023-07-07T11:13:36.056Z,213.75
2023-07-07T11:14:36.668Z,213.75
2023-07-07T11:15:36.649Z,213.75
2023-07-07T11:16:36.027Z,213.75
2023-07-07T11:17:36.012Z,208.12
2023-07-07T11:19:36.606Z,208.12
2023-07-07T11:20:36.602Z,208.12
2023-07-07T11:21:36.587Z,208.12
2023-07-07T11:22:36.560Z,208.12
2023-07-07T11:23:35.899Z,208.12
2023-07-07T11:24:56.330Z,208.12
2023-07-07T11:25:37.611Z,208.12
2023-07-07T11:26:35.862Z,202.50
2023-07-07T11:27:35.936Z,202.50
2023-07-07T11:28:35.817Z,202.50
2023-07-07T11:29:35.803Z,202.50
2023-07-07T11:30:36.502Z,202.50
2023-07-07T11:31:35.828Z,202.50
2023-07-07T11:32:35.845Z,208.12
2023-07-07T11:33:36.473Z,208.12
2023-07-07T11:34:36.476Z,202.50
2023-07-07T11:35:36.463Z,202.50
2023-07-07T11:36:36.428Z,202.50
2023-07-07T11:37:35.753Z,196.88
2023-07-07T11:38:35.724Z,196.88
2023-07-07T11:39:35.726Z,196.88
2023-07-07T11:40:36.419Z,196.88
2023-07-07T11:41:37.649Z,196.88
2023-07-07T11:42:35.690Z,196.88
2023-07-07T11:43:36.381Z,196.88
2023-07-07T11:44:36.371Z,196.88
2023-07-07T11:45:36.336Z,196.88
2023-07-07T11:46:35.688Z,196.88
2023-07-07T11:47:35.629Z,191.25
2023-07-07T11:48:36.576Z,191.25
2023-07-07T11:49:36.327Z,191.25
2023-07-07T11:50:36.269Z,191.25
2023-07-07T11:51:36.275Z,191.25
2023-07-07T11:52:36.269Z,191.25
2023-07-07T11:53:36.253Z,191.25
2023-07-07T11:54:36.243Z,191.25
2023-07-07T11:55:35.564Z,191.25
2023-07-07T11:56:36.241Z,191.25
2023-07-07T11:57:37.402Z,191.25
2023-07-07T11:58:36.195Z,191.25
2023-07-07T11:59:36.171Z,191.25
2023-07-07T12:00:35.501Z,191.25
2023-07-07T12:01:36.163Z,191.25
2023-07-07T12:02:35.487Z,185.62
2023-07-07T12:03:35.788Z,185.62
2023-07-07T12:04:37.112Z,185.62
2023-07-07T12:05:35.722Z,191.25
2023-07-07T12:06:35.445Z,202.50
2023-07-07T12:07:35.421Z,196.88
2023-07-07T12:08:36.102Z,191.25
2023-07-07T12:09:36.128Z,185.62
2023-07-07T12:10:35.377Z,185.62
2023-07-07T12:11:35.380Z,185.62
2023-07-07T12:12:35.362Z,174.38
2023-07-07T12:13:36.067Z,180.00
2023-07-07T12:14:35.419Z,180.00
2023-07-07T12:15:36.024Z,180.00
2023-07-07T12:16:35.389Z,180.00
2023-07-07T12:17:35.360Z,180.00
2023-07-07T12:18:35.357Z,180.00
2023-07-07T12:19:36.030Z,180.00
2023-07-07T12:20:36.782Z,180.00
2023-07-07T12:21:35.261Z,180.00
2023-07-07T12:22:35.963Z,180.00
2023-07-07T12:23:35.928Z,180.00
2023-07-07T12:24:35.929Z,180.00
2023-07-07T12:25:35.925Z,174.38
2023-07-07T12:26:37.087Z,174.38
2023-07-07T12:27:35.896Z,174.38
2023-07-07T12:28:35.885Z,174.38
2023-07-07T12:29:35.206Z,174.38
2023-07-07T12:30:35.869Z,174.38
2023-07-07T12:31:35.889Z,174.38
2023-07-07T12:32:35.860Z,174.38
2023-07-07T12:33:35.146Z,174.38
2023-07-07T12:34:35.146Z,174.38
2023-07-07T12:35:35.819Z,174.38
2023-07-07T12:36:35.200Z,174.38
2023-07-07T12:37:35.796Z,174.38
2023-07-07T12:38:37.061Z,168.75
2023-07-07T12:39:35.783Z,168.75